createdAt,value
2022-12-18T00:02:11.570Z,99714.81
2022-12-18T00:04:38.249Z,99664.09
2022-12-18T00:07:05.009Z,99719.88
2022-12-18T00:09:39.628Z,99724.13
2022-12-18T00:14:43.081Z,99734.25
2022-12-18T00:17:10.034Z,99711.44
2022-12-18T00:19:36.805Z,99732.53
2022-12-18T00:22:03.667Z,99633.72
2022-12-18T00:24:30.390Z,99675.06
2022-12-18T00:26:56.982Z,99709.75
2022-12-18T00:29:23.534Z,99740.16
2022-12-18T00:31:50.273Z,99744.38
2022-12-18T00:34:17.247Z,99746.06
2022-12-18T00:36:43.785Z,99746.06
2022-12-18T00:39:13.226Z,99749.44
2022-12-18T00:41:58.766Z,99740.16
2022-12-18T00:44:25.864Z,99648.03
2022-12-18T00:46:52.497Z,99730.03
2022-12-18T00:49:20.983Z,99762.13
2022-12-18T00:51:48.691Z,99710.56
2022-12-18T00:54:15.726Z,99754.53
2022-12-18T00:56:50.086Z,99610.91
2022-12-18T00:59:20.624Z,99733.41
2022-12-18T01:01:47.865Z,99731.69
2022-12-18T01:04:14.926Z,99764.66
2022-12-18T01:06:41.613Z,99680.16
2022-12-18T01:09:08.196Z,99750.28
2022-12-18T01:11:36.974Z,99763.81
2022-12-18T01:14:05.076Z,99781.53
2022-12-18T01:16:31.698Z,99607.47
2022-12-18T01:18:58.307Z,99721.53
2022-12-18T01:21:27.871Z,99702.91
2022-12-18T01:23:56.008Z,99768.78
2022-12-18T01:26:24.920Z,99772.19
2022-12-18T01:28:51.773Z,99779.81
2022-12-18T01:31:25.187Z,99773.88
2022-12-18T01:33:53.393Z,99773.91
2022-12-18T01:36:23.238Z,99702.00
2022-12-18T01:38:51.119Z,99777.28
2022-12-18T01:41:22.883Z,99784.03
2022-12-18T01:43:55.334Z,99746.78
2022-12-18T01:46:24.000Z,99780.59
2022-12-18T01:48:54.404Z,99773.84
2022-12-18T01:51:21.569Z,99744.22
2022-12-18T01:53:49.108Z,99733.25
2022-12-18T01:56:18.616Z,99776.34
2022-12-18T01:59:03.649Z,99808.44
2022-12-18T02:01:32.318Z,99736.47
2022-12-18T02:04:24.445Z,99814.34
2022-12-18T02:07:02.790Z,99763.56
2022-12-18T02:09:36.443Z,99617.34
2022-12-18T02:12:14.227Z,99821.19
2022-12-18T02:15:10.763Z,99863.41
2022-12-18T02:17:48.704Z,99855.81
2022-12-18T02:20:24.907Z,99844.84
2022-12-18T02:23:10.418Z,99851.59
2022-12-18T02:25:55.957Z,99862.50
2022-12-18T02:28:26.853Z,99820.97
2022-12-18T02:30:58.794Z,99802.28
2022-12-18T02:33:28.239Z,99868.41
2022-12-18T02:35:57.128Z,99866.69
2022-12-18T02:38:26.421Z,99882.75
2022-12-18T02:40:55.738Z,99883.63
2022-12-18T02:43:22.750Z,99878.59
2022-12-18T02:45:55.902Z,99838.00
2022-12-18T02:48:31.345Z,99930.97
2022-12-18T02:51:30.093Z,99900.56
2022-12-18T02:54:18.083Z,99913.25
2022-12-18T02:56:55.257Z,99915.69
2022-12-18T02:59:39.813Z,99913.97
2022-12-18T03:02:27.830Z,99836.84
2022-12-18T03:05:08.236Z,99874.97
2022-12-18T03:07:41.469Z,99953.72
2022-12-18T03:10:15.031Z,99934.25
2022-12-18T03:12:49.074Z,99891.91
2022-12-18T03:15:25.104Z,99981.53
2022-12-18T03:18:05.643Z,99869.63
2022-12-18T03:20:35.185Z,99966.19
2022-12-18T03:23:12.493Z,99853.44
2022-12-18T03:25:42.958Z,99945.00
2022-12-18T03:28:13.127Z,99978.03
2022-12-18T03:30:42.552Z,99980.56
2022-12-18T03:33:14.361Z,99977.16
2022-12-18T03:35:45.379Z,99916.94
2022-12-18T03:38:13.833Z,99903.41
2022-12-18T03:41:16.980Z,99944.84
2022-12-18T03:44:19.856Z,99928.97
2022-12-18T03:47:06.112Z,99994.16
2022-12-18T03:49:51.566Z,99995.84
2022-12-18T03:52:28.270Z,100031.38
2022-12-18T03:54:57.783Z,99976.31
2022-12-18T03:57:28.952Z,100011.88
2022-12-18T04:00:00.971Z,100010.09
2022-12-18T04:02:45.613Z,99947.22
2022-12-18T04:05:16.777Z,99985.47
2022-12-18T04:07:47.148Z,99906.59
2022-12-18T04:10:16.529Z,100025.28
2022-12-18T04:12:43.736Z,99943.03
2022-12-18T04:15:13.877Z,100026.97
2022-12-18T04:17:48.850Z,100053.97
2022-12-18T04:20:18.200Z,100020.16
2022-12-18T04:22:45.696Z,100038.84
2022-12-18T04:25:14.265Z,99933.53
2022-12-18T04:27:52.994Z,99913.94
2022-12-18T04:30:19.710Z,99944.38
2022-12-18T04:32:51.876Z,100058.63
2022-12-18T04:35:19.883Z,100077.97
2022-12-18T04:37:47.339Z,100055.63
2022-12-18T04:40:15.411Z,100053.97
2022-12-18T04:42:45.596Z,100076.06
2022-12-18T04:45:12.395Z,100071.94
2022-12-18T04:47:39.082Z,100077.13
2022-12-18T04:50:06.609Z,100092.38
2022-12-18T04:52:33.272Z,100098.34
2022-12-18T04:54:59.906Z,100072.59
2022-12-18T04:57:27.098Z,100108.16
2022-12-18T04:59:53.809Z,100120.88
2022-12-18T05:02:20.508Z,99990.97
2022-12-18T05:04:47.364Z,100139.50
2022-12-18T05:07:14.038Z,100086.06
2022-12-18T05:09:40.829Z,100079.13
2022-12-18T05:12:08.723Z,100138.69
2022-12-18T05:14:38.649Z,100074.91
2022-12-18T05:17:05.548Z,100155.44
2022-12-18T05:19:32.516Z,100157.94
2022-12-18T05:21:59.277Z,100081.38
2022-12-18T05:24:26.262Z,100138.41
2022-12-18T05:26:53.106Z,100137.56
2022-12-18T05:29:19.871Z,100101.94
2022-12-18T05:31:46.602Z,100168.25
2022-12-18T05:34:13.436Z,100076.56
2022-12-18T05:36:40.482Z,100141.91
2022-12-18T05:39:07.653Z,100165.72
2022-12-18T05:41:34.752Z,100186.97
2022-12-18T05:44:01.428Z,100175.00
2022-12-18T05:46:28.296Z,100185.91
2022-12-18T05:48:55.086Z,100157.91
2022-12-18T05:51:23.014Z,100210.56
2022-12-18T05:53:49.877Z,100218.84
2022-12-18T05:56:19.786Z,100240.59
2022-12-18T05:58:47.353Z,100231.28
2022-12-18T06:01:27.326Z,100208.25
2022-12-18T06:03:54.704Z,100243.00
2022-12-18T06:06:24.457Z,100242.31
2022-12-18T06:08:51.830Z,100243.06
2022-12-18T06:11:21.288Z,100258.97
2022-12-18T06:13:54.770Z,100261.47
2022-12-18T06:16:25.031Z,100267.28
2022-12-18T06:18:51.862Z,100149.13
2022-12-18T06:21:18.576Z,100275.78
2022-12-18T06:23:45.329Z,100192.94
2022-12-18T06:26:13.764Z,100138.69
2022-12-18T06:28:41.070Z,100278.22
2022-12-18T06:31:15.688Z,100288.22
2022-12-18T06:33:45.846Z,100209.97
2022-12-18T06:36:14.257Z,100318.56
2022-12-18T06:38:44.583Z,100298.00
2022-12-18T06:41:20.325Z,100286.78
2022-12-18T06:43:48.233Z,100269.81
2022-12-18T06:46:15.217Z,100341.31
2022-12-18T06:48:42.252Z,100237.50
2022-12-18T06:51:09.301Z,100274.94
2022-12-18T06:53:36.071Z,100259.50
2022-12-18T06:56:10.263Z,100168.56
2022-12-18T06:58:38.739Z,100280.91
2022-12-18T07:01:08.081Z,100339.88
2022-12-18T07:03:35.798Z,100366.03
2022-12-18T07:06:02.718Z,100354.91
2022-12-18T07:08:30.979Z,100355.72
2022-12-18T07:10:57.983Z,100373.75
2022-12-18T07:13:24.768Z,100356.00
2022-12-18T07:15:51.693Z,100390.94
2022-12-18T07:18:18.371Z,100273.50
2022-12-18T07:20:45.185Z,100309.88
2022-12-18T07:23:12.763Z,100396.78
2022-12-18T07:25:40.442Z,100409.28
2022-12-18T07:28:08.859Z,100412.72
2022-12-18T07:30:39.379Z,100298.59
2022-12-18T07:33:06.085Z,100272.28
2022-12-18T07:35:34.117Z,100442.25
2022-12-18T07:38:00.849Z,100391.53
2022-12-18T07:40:28.378Z,100430.47
2022-12-18T07:42:55.417Z,100397.97
2022-12-18T07:45:22.166Z,100438.94
2022-12-18T07:47:48.880Z,100356.09
2022-12-18T07:50:16.178Z,100430.88
2022-12-18T07:52:43.338Z,100329.63
2022-12-18T07:55:10.122Z,100444.78
2022-12-18T07:57:56.408Z,100420.81
2022-12-18T08:00:24.041Z,100426.44
2022-12-18T08:02:50.836Z,100464.56
2022-12-18T08:05:18.252Z,100478.13
2022-12-18T08:07:45.089Z,100446.81
2022-12-18T08:10:12.015Z,100462.22
2022-12-18T08:12:40.515Z,100452.13
2022-12-18T08:15:08.242Z,100469.75
2022-12-18T08:17:35.025Z,100410.09
2022-12-18T08:20:02.333Z,100465.28
2022-12-18T08:22:29.040Z,100395.53
2022-12-18T08:24:55.892Z,100492.56
2022-12-18T08:27:30.451Z,100337.66
2022-12-18T08:29:58.324Z,100495.63
2022-12-18T08:32:26.696Z,100408.69
2022-12-18T08:34:53.597Z,100417.81
2022-12-18T08:37:20.569Z,100468.56
2022-12-18T08:39:47.252Z,100514.28
2022-12-18T08:42:32.935Z,100470.59
2022-12-18T08:44:59.751Z,100421.09
2022-12-18T08:47:27.145Z,100461.84
2022-12-18T08:49:54.031Z,100417.81
2022-12-18T08:52:20.979Z,100476.38
2022-12-18T08:54:47.950Z,100532.59
2022-12-18T08:57:14.875Z,100541.69
2022-12-18T08:59:42.244Z,100500.34
2022-12-18T09:02:13.175Z,100557.84
2022-12-18T09:04:40.897Z,100471.63
2022-12-18T09:07:07.761Z,100464.38
2022-12-18T09:09:34.423Z,100560.53
2022-12-18T09:12:01.270Z,100530.97
2022-12-18T09:14:28.061Z,100550.78
2022-12-18T09:16:54.838Z,100557.22
2022-12-18T09:19:22.323Z,100568.91
2022-12-18T09:21:49.378Z,100511.47
2022-12-18T09:24:17.027Z,100571.47
2022-12-18T09:26:46.897Z,100573.31
2022-12-18T09:29:18.853Z,100513.81
2022-12-18T09:31:46.426Z,100517.31
2022-12-18T09:34:13.677Z,100586.41
2022-12-18T09:36:40.742Z,100587.41
2022-12-18T09:39:08.998Z,100423.09
2022-12-18T09:41:42.448Z,100573.38
2022-12-18T09:47:44.143Z,100563.63
2022-12-18T09:50:35.159Z,100596.25
2022-12-18T09:53:17.042Z,100520.69
2022-12-18T09:55:47.571Z,100605.59
2022-12-18T09:58:17.498Z,100622.66
2022-12-18T10:00:44.604Z,100585.41
2022-12-18T10:03:16.355Z,100553.09
2022-12-18T10:05:52.427Z,100632.19
2022-12-18T10:08:37.954Z,100608.28
2022-12-18T10:11:23.072Z,100601.75
2022-12-18T10:14:10.844Z,100582.69
2022-12-18T10:16:54.274Z,100637.81
2022-12-18T10:19:59.604Z,100642.81
2022-12-18T10:22:31.931Z,100639.25
2022-12-18T10:25:38.160Z,100648.41
2022-12-18T10:28:14.383Z,100543.47
2022-12-18T10:30:43.272Z,100504.06
2022-12-18T10:33:15.067Z,100653.69
2022-12-18T10:35:43.274Z,100639.91
2022-12-18T10:38:13.578Z,100653.06
2022-12-18T10:40:53.017Z,100624.78
2022-12-18T10:43:36.063Z,100655.78
2022-12-18T10:46:09.100Z,100663.19
2022-12-18T10:48:47.943Z,100661.34
2022-12-18T10:51:34.890Z,100661.25
2022-12-18T10:54:23.511Z,100651.69
2022-12-18T10:56:50.581Z,100644.94
2022-12-18T10:59:19.055Z,100670.81
2022-12-18T11:01:59.323Z,100628.66
2022-12-18T11:04:26.087Z,100672.97
2022-12-18T11:07:06.787Z,100637.34
2022-12-18T11:09:38.545Z,100616.09
2022-12-18T11:12:16.062Z,100687.25
2022-12-18T11:14:47.700Z,100678.69
2022-12-18T11:17:26.720Z,100510.75
2022-12-18T11:20:02.434Z,100692.34
2022-12-18T11:22:32.724Z,100697.53
2022-12-18T11:27:53.891Z,100715.78
2022-12-18T11:30:26.451Z,100706.47
2022-12-18T11:33:18.619Z,100619.75
2022-12-18T11:35:48.068Z,100710.69
2022-12-18T11:38:24.328Z,100713.97
2022-12-18T11:41:00.065Z,100724.94
2022-12-18T11:43:36.626Z,100653.25
2022-12-18T11:46:20.232Z,100724.34
2022-12-18T11:48:55.496Z,100728.41
2022-12-18T11:51:30.867Z,100731.53
2022-12-18T11:53:57.697Z,100698.28
2022-12-18T11:56:33.056Z,100683.63
2022-12-18T11:59:27.130Z,100740.34
2022-12-18T12:01:59.441Z,100736.22
2022-12-18T12:05:01.491Z,100742.78
2022-12-18T12:08:07.008Z,100658.97
2022-12-18T12:10:43.804Z,100761.25
2022-12-18T12:13:26.407Z,100721.63
2022-12-18T12:16:25.703Z,100763.34
2022-12-18T12:19:12.508Z,100778.50
2022-12-18T12:21:43.234Z,100775.28
2022-12-18T12:24:20.237Z,100677.47
2022-12-18T12:27:01.527Z,100665.22
2022-12-18T12:29:34.128Z,100785.66
2022-12-18T12:32:23.710Z,100778.47
2022-12-18T12:35:15.343Z,100710.03
2022-12-18T12:38:08.113Z,100802.44
2022-12-18T12:40:53.485Z,100831.97
2022-12-18T12:43:49.440Z,100766.03
2022-12-18T12:46:22.848Z,100797.78
2022-12-18T12:48:55.422Z,100752.66
2022-12-18T12:51:26.652Z,100789.97
2022-12-18T12:53:55.535Z,100842.97
2022-12-18T12:56:24.393Z,100838.84
2022-12-18T12:59:06.155Z,100832.88
2022-12-18T13:02:05.584Z,100832.69
2022-12-18T13:05:11.006Z,100833.53
2022-12-18T13:07:51.178Z,100854.63
2022-12-18T13:10:19.034Z,100835.31
2022-12-18T13:13:03.960Z,100825.63
2022-12-18T13:15:38.580Z,100784.16
2022-12-18T13:18:15.580Z,100798.72
2022-12-18T13:20:52.455Z,100749.66
2022-12-18T13:23:25.232Z,100857.50
2022-12-18T13:25:59.825Z,100865.94
2022-12-18T13:28:48.230Z,100856.47
2022-12-18T13:31:31.003Z,100778.06
2022-12-18T13:34:28.288Z,100871.50
2022-12-18T13:37:15.570Z,100835.22
2022-12-18T13:39:43.009Z,100831.72
2022-12-18T13:42:09.576Z,100883.38
2022-12-18T13:44:41.808Z,100813.09
2022-12-18T13:47:32.065Z,100843.22
2022-12-18T13:49:59.529Z,100850.22
2022-12-18T13:52:29.411Z,100831.00
2022-12-18T13:54:59.955Z,100749.00
2022-12-18T13:57:26.475Z,100896.38
2022-12-18T13:59:53.347Z,100892.03
2022-12-18T14:02:28.652Z,100944.78
2022-12-18T14:04:56.440Z,100875.97
2022-12-18T14:07:31.474Z,100907.44
2022-12-18T14:10:44.321Z,100888.97
2022-12-18T14:13:10.553Z,100871.75
2022-12-18T14:15:47.023Z,100832.66
2022-12-18T14:18:43.713Z,100896.84
2022-12-18T14:21:33.461Z,100923.13
2022-12-18T14:24:16.754Z,100888.00
2022-12-18T14:26:48.322Z,100927.59
2022-12-18T14:29:24.330Z,100937.75
2022-12-18T14:32:18.756Z,100850.44
2022-12-18T14:34:56.955Z,100911.38
2022-12-18T14:37:28.392Z,100913.53
2022-12-18T14:40:10.422Z,100887.78
2022-12-18T14:42:38.329Z,100956.09
2022-12-18T14:45:41.644Z,100957.63
2022-12-18T14:48:19.092Z,100930.91
2022-12-18T14:51:03.491Z,100942.22
2022-12-18T14:53:35.074Z,100936.91
2022-12-18T14:56:02.582Z,100976.13
2022-12-18T14:58:29.657Z,100897.66
2022-12-18T15:00:56.436Z,100869.16
2022-12-18T15:03:24.227Z,100915.97
2022-12-18T15:05:53.394Z,100981.84
2022-12-18T15:08:32.133Z,101008.84
2022-12-18T15:11:00.816Z,100969.81
2022-12-18T15:13:29.001Z,100922.69
2022-12-18T15:16:02.559Z,100907.03
2022-12-18T15:18:36.589Z,100991.91
2022-12-18T15:21:18.712Z,100932.56
2022-12-18T15:23:46.276Z,100969.78
2022-12-18T15:26:15.891Z,100891.78
2022-12-18T15:28:57.493Z,101002.09
2022-12-18T15:31:39.106Z,100861.38
2022-12-18T15:34:09.572Z,100983.91
2022-12-18T15:36:37.760Z,100978.88
2022-12-18T15:39:06.627Z,100973.84
2022-12-18T15:41:36.370Z,100995.13
2022-12-18T15:44:04.999Z,100944.34
2022-12-18T15:46:32.498Z,100899.84
2022-12-18T15:49:02.642Z,100923.59
2022-12-18T15:51:38.686Z,100979.72
2022-12-18T15:54:14.184Z,100899.53
2022-12-18T15:56:59.791Z,100941.53
2022-12-18T15:59:27.469Z,100912.50
2022-12-18T16:01:55.287Z,100887.84
2022-12-18T16:04:23.551Z,101021.69
2022-12-18T16:09:41.390Z,101022.81
2022-12-18T16:12:19.455Z,100963.81
2022-12-18T16:14:47.579Z,100974.78
2022-12-18T16:17:16.427Z,100993.56
2022-12-18T16:19:44.340Z,100914.75
2022-12-18T16:22:31.492Z,100985.78
2022-12-18T16:24:59.315Z,100935.94
2022-12-18T16:27:27.443Z,101037.13
2022-12-18T16:29:55.158Z,100901.94
2022-12-18T16:32:23.526Z,101038.91
2022-12-18T16:35:00.897Z,101042.13
2022-12-18T16:37:29.884Z,100929.91
2022-12-18T16:39:59.229Z,101053.63
2022-12-18T16:42:28.374Z,101042.97
2022-12-18T16:44:56.497Z,101032.69
2022-12-18T16:47:25.786Z,100994.06
2022-12-18T16:49:53.897Z,101067.72
2022-12-18T16:52:24.350Z,101066.00
2022-12-18T16:54:51.979Z,101068.38
2022-12-18T16:57:24.663Z,101051.25
2022-12-18T16:59:53.535Z,101074.63
2022-12-18T17:02:28.205Z,101007.16
2022-12-18T17:05:00.837Z,101082.25
2022-12-18T17:07:29.178Z,101002.34
2022-12-18T17:09:58.947Z,101057.88
2022-12-18T17:12:27.446Z,101079.34
2022-12-18T17:14:56.498Z,101033.81
2022-12-18T17:17:24.337Z,101092.03
2022-12-18T17:19:53.041Z,101031.38
2022-12-18T17:22:23.370Z,101030.31
2022-12-18T17:24:50.822Z,101089.84
2022-12-18T17:27:18.384Z,101024.09
2022-12-18T17:29:48.234Z,101061.31
2022-12-18T17:32:18.004Z,100895.44
2022-12-18T17:34:46.360Z,101007.78
2022-12-18T17:37:14.716Z,101066.66
2022-12-18T17:39:42.415Z,101078.63
2022-12-18T17:42:14.832Z,100982.78
2022-12-18T17:44:45.412Z,101064.03
2022-12-18T17:47:16.642Z,101072.53
2022-12-18T17:49:44.991Z,101084.16
2022-12-18T17:52:13.436Z,101005.38
2022-12-18T17:54:42.484Z,101057.03
2022-12-18T17:57:11.259Z,101090.38
2022-12-18T17:59:39.308Z,101060.69
2022-12-18T18:02:07.099Z,101041.81
2022-12-18T18:04:34.725Z,101036.78
2022-12-18T18:07:02.051Z,101031.44
2022-12-18T18:09:29.080Z,100961.22
2022-12-18T18:12:15.240Z,101101.97
2022-12-18T18:14:42.560Z,100990.84
2022-12-18T18:17:09.967Z,101100.47
2022-12-18T18:19:36.969Z,101044.31
2022-12-18T18:22:06.256Z,101023.19
2022-12-18T18:24:33.807Z,101078.09
2022-12-18T18:27:01.894Z,101078.19
2022-12-18T18:29:32.932Z,101100.00
2022-12-18T18:32:00.292Z,101012.25
2022-12-18T18:34:30.308Z,101108.56
2022-12-18T18:36:57.362Z,101107.13
2022-12-18T18:39:24.415Z,101119.72
2022-12-18T18:41:51.707Z,101114.63
2022-12-18T18:44:24.807Z,101034.28
2022-12-18T18:46:57.748Z,101105.88
2022-12-18T18:49:28.395Z,100947.41
2022-12-18T18:51:57.350Z,101121.00
2022-12-18T18:54:26.219Z,101066.19
2022-12-18T18:57:19.302Z,101138.94
2022-12-18T18:59:41.083Z,101110.66
2022-12-18T19:02:16.101Z,101125.00
2022-12-18T19:04:46.242Z,101118.00
2022-12-18T19:07:18.489Z,101092.16
2022-12-18T19:09:57.487Z,101052.72
2022-12-18T19:12:45.742Z,100957.38
2022-12-18T19:15:16.834Z,101115.28
2022-12-18T19:17:47.861Z,101112.97
2022-12-18T19:20:18.121Z,101190.63
2022-12-18T19:22:54.822Z,100991.25
2022-12-18T19:25:30.674Z,101118.59
2022-12-18T19:28:12.034Z,101110.47
2022-12-18T19:30:50.033Z,101135.59
2022-12-18T19:33:41.575Z,101124.53
2022-12-18T19:36:29.154Z,101135.56
2022-12-18T19:39:00.743Z,101134.56
2022-12-18T19:41:32.049Z,101080.50
2022-12-18T19:44:07.359Z,101133.69
2022-12-18T19:46:36.024Z,101131.56
2022-12-18T19:49:04.473Z,101091.00
2022-12-18T19:51:32.793Z,101126.75
2022-12-18T19:54:02.704Z,101134.47
2022-12-18T19:56:32.835Z,101158.41
2022-12-18T19:59:00.449Z,101119.13
2022-12-18T20:01:28.659Z,101124.38
2022-12-18T20:03:57.580Z,101168.69
2022-12-18T20:06:30.257Z,101161.09
2022-12-18T20:09:01.054Z,101161.94
2022-12-18T20:11:30.141Z,101163.31
2022-12-18T20:13:57.992Z,100946.28
2022-12-18T20:16:28.332Z,101184.50
2022-12-18T20:19:00.747Z,101129.53
2022-12-18T20:21:28.547Z,101089.00
2022-12-18T20:24:00.164Z,101130.91
2022-12-18T20:26:27.902Z,101198.00
2022-12-18T20:28:55.653Z,101198.91
2022-12-18T20:31:23.852Z,101036.78
2022-12-18T20:33:53.313Z,101201.44
2022-12-18T20:36:23.394Z,101118.06
2022-12-18T20:38:56.370Z,101033.47
2022-12-18T20:41:28.177Z,101138.56
2022-12-18T20:44:05.839Z,101129.13
2022-12-18T20:46:35.451Z,101086.22
2022-12-18T20:49:03.513Z,101173.03
2022-12-18T20:51:31.704Z,101188.34
2022-12-18T20:53:59.752Z,101122.31
2022-12-18T20:56:27.454Z,101104.47
2022-12-18T20:58:57.067Z,101019.63
2022-12-18T21:01:25.384Z,101204.78
2022-12-18T21:03:54.308Z,101184.84
2022-12-18T21:06:23.185Z,101226.44
2022-12-18T21:08:50.653Z,101143.53
2022-12-18T21:11:38.953Z,101209.69
2022-12-18T21:14:23.922Z,101218.22
2022-12-18T21:16:51.821Z,101166.19
2022-12-18T21:19:23.117Z,101151.75
2022-12-18T21:21:50.758Z,101206.38
2022-12-18T21:24:18.252Z,101170.44
2022-12-18T21:26:47.360Z,101201.28
2022-12-18T21:29:20.228Z,101192.69
2022-12-18T21:31:47.995Z,101053.16
2022-12-18T21:34:21.719Z,101151.88
2022-12-18T21:36:49.572Z,101220.94
2022-12-18T21:39:17.438Z,101241.81
2022-12-18T21:42:03.501Z,101184.38
2022-12-18T21:44:31.004Z,101117.94
2022-12-18T21:47:15.273Z,101207.91
2022-12-18T21:49:48.614Z,101150.06
2022-12-18T21:52:15.602Z,101217.50
2022-12-18T21:54:42.531Z,101201.88
2022-12-18T21:57:13.325Z,101134.59
2022-12-18T21:59:42.592Z,101140.34
2022-12-18T22:02:16.793Z,101216.06
2022-12-18T22:04:45.100Z,101146.03
2022-12-18T22:07:13.610Z,101230.13
2022-12-18T22:09:41.136Z,101137.19
2022-12-18T22:12:09.050Z,101222.31
2022-12-18T22:14:36.161Z,101122.00
2022-12-18T22:17:03.110Z,101216.47
2022-12-18T22:19:30.888Z,101188.53
2022-12-18T22:21:57.879Z,101199.88
2022-12-18T22:24:26.663Z,101244.72
2022-12-18T22:27:01.951Z,101240.38
2022-12-18T22:29:48.412Z,101245.59
2022-12-18T22:32:22.240Z,101258.22
2022-12-18T22:35:05.255Z,101248.16
2022-12-18T22:37:34.098Z,101195.03
2022-12-18T22:40:03.301Z,101178.63
2022-12-18T22:42:31.599Z,101185.34
2022-12-18T22:44:58.529Z,101127.28
2022-12-18T22:47:29.731Z,101145.03
2022-12-18T22:49:57.348Z,101195.84
2022-12-18T22:52:25.058Z,101188.28
2022-12-18T22:54:53.144Z,101199.00
2022-12-18T22:57:24.306Z,101063.59
2022-12-18T22:59:51.718Z,101205.78
2022-12-18T23:02:19.687Z,101234.16
2022-12-18T23:04:47.735Z,101236.00
2022-12-18T23:07:15.506Z,101182.72
2022-12-18T23:09:42.585Z,101167.31
2022-12-18T23:12:15.017Z,101230.63
2022-12-18T23:14:42.048Z,101257.94
2022-12-18T23:17:09.127Z,101196.06
2022-12-18T23:19:37.488Z,101249.53
2022-12-18T23:22:08.664Z,101240.84
2022-12-18T23:24:38.577Z,101187.78
2022-12-18T23:27:05.741Z,101266.69
2022-12-18T23:29:36.367Z,101228.97
2022-12-18T23:32:03.363Z,101201.91
2022-12-18T23:34:30.325Z,101274.22
2022-12-18T23:36:58.085Z,101196.16
2022-12-18T23:39:29.705Z,101140.91
2022-12-18T23:42:00.921Z,101246.03
2022-12-18T23:44:28.432Z,101257.78
2022-12-18T23:46:55.856Z,101227.31
2022-12-18T23:49:23.125Z,101253.03
2022-12-18T23:51:50.386Z,101210.25
2022-12-18T23:54:17.424Z,101163.44
2022-12-18T23:56:52.308Z,101198.78
2022-12-18T23:59:22.640Z,101206.53
